createdAt,value
2022-09-12T00:01:07.957Z,13.86
2022-09-12T00:03:36.384Z,13.85
2022-09-12T00:06:09.428Z,13.80
2022-09-12T00:08:37.500Z,13.77
2022-09-12T00:11:09.107Z,13.75
2022-09-12T00:13:41.345Z,13.65
2022-09-12T00:16:16.387Z,13.58
2022-09-12T00:18:46.896Z,13.56
2022-09-12T00:21:15.709Z,13.54
2022-09-12T00:23:43.693Z,13.49
2022-09-12T00:26:13.759Z,13.43
2022-09-12T00:28:42.739Z,13.38
2022-09-12T00:31:13.208Z,13.27
2022-09-12T00:33:41.846Z,13.27
2022-09-12T00:36:11.735Z,13.28
2022-09-12T00:38:42.024Z,13.21
2022-09-12T00:41:16.920Z,13.23
2022-09-12T00:43:47.369Z,13.22
2022-09-12T00:46:24.972Z,13.18
2022-09-12T00:48:58.223Z,13.19
2022-09-12T00:51:26.400Z,13.15
2022-09-12T00:53:55.070Z,13.05
2022-09-12T00:56:25.060Z,13.08
2022-09-12T00:58:57.245Z,13.08
2022-09-12T01:01:29.241Z,13.09
2022-09-12T01:03:59.912Z,13.06
2022-09-12T01:06:29.351Z,12.99
2022-09-12T01:08:59.241Z,12.96
2022-09-12T01:11:29.583Z,12.95
2022-09-12T01:13:57.854Z,12.91
2022-09-12T01:16:25.919Z,12.88
2022-09-12T01:19:02.836Z,12.90
2022-09-12T01:21:38.362Z,12.81
2022-09-12T01:24:31.695Z,12.80
2022-09-12T01:27:21.537Z,12.76
2022-09-12T01:30:04.611Z,12.73
2022-09-12T01:32:44.019Z,12.68
2022-09-12T01:35:17.552Z,12.68
2022-09-12T01:37:51.578Z,12.66
2022-09-12T01:40:23.994Z,12.66
2022-09-12T01:42:56.535Z,12.68
2022-09-12T01:45:29.211Z,12.63
2022-09-12T01:48:02.385Z,12.56
2022-09-12T01:50:33.520Z,12.58
2022-09-12T01:53:03.608Z,12.56
2022-09-12T01:55:35.179Z,12.52
2022-09-12T01:58:06.587Z,12.51
2022-09-12T02:00:36.744Z,12.50
2022-09-12T02:03:10.400Z,12.48
2022-09-12T02:05:40.983Z,12.52
2022-09-12T02:08:11.495Z,12.45
2022-09-12T02:10:43.442Z,12.43
2022-09-12T02:13:13.758Z,12.45
2022-09-12T02:15:44.530Z,12.43
2022-09-12T02:18:15.928Z,12.38
2022-09-12T02:20:48.564Z,12.37
2022-09-12T02:23:18.686Z,12.34
2022-09-12T02:25:47.983Z,12.28
2022-09-12T02:28:18.370Z,12.23
2022-09-12T02:30:51.960Z,12.22
2022-09-12T02:33:26.732Z,12.23
2022-09-12T02:35:59.784Z,12.15
2022-09-12T02:38:29.382Z,12.11
2022-09-12T02:40:57.567Z,12.08
2022-09-12T02:43:25.873Z,12.04
2022-09-12T02:45:54.404Z,12.05
2022-09-12T02:48:27.819Z,12.07
2022-09-12T02:50:56.126Z,12.07
2022-09-12T02:53:24.696Z,12.12
2022-09-12T02:55:52.804Z,12.11
2022-09-12T02:58:23.748Z,12.11
2022-09-12T03:00:57.532Z,12.07
2022-09-12T03:03:48.159Z,12.05
2022-09-12T03:06:19.851Z,12.08
2022-09-12T03:09:10.012Z,11.98
2022-09-12T03:11:58.299Z,11.96
2022-09-12T03:14:49.844Z,11.97
2022-09-12T03:17:26.174Z,11.94
2022-09-12T03:19:58.776Z,11.90
2022-09-12T03:22:30.585Z,11.86
2022-09-12T03:25:05.482Z,11.79
2022-09-12T03:27:36.451Z,11.80
2022-09-12T03:30:05.582Z,11.80
2022-09-12T03:32:47.014Z,11.82
2022-09-12T03:35:22.268Z,11.80
2022-09-12T03:37:52.047Z,11.75
2022-09-12T03:40:20.339Z,11.76
2022-09-12T03:42:48.617Z,11.72
2022-09-12T03:45:16.814Z,11.72
2022-09-12T03:47:44.818Z,11.74
2022-09-12T03:50:12.866Z,11.72
2022-09-12T03:52:42.255Z,11.68
2022-09-12T03:55:11.014Z,11.62
2022-09-12T03:57:39.144Z,11.57
2022-09-12T04:00:08.738Z,11.61
2022-09-12T04:02:43.433Z,11.52
2022-09-12T04:05:11.569Z,11.52
2022-09-12T04:07:39.737Z,11.51
2022-09-12T04:10:10.054Z,11.46
2022-09-12T04:12:39.525Z,11.43
2022-09-12T04:15:08.844Z,11.44
2022-09-12T04:17:36.883Z,11.50
2022-09-12T04:20:05.499Z,11.45
2022-09-12T04:22:33.759Z,11.48
2022-09-12T04:25:02.011Z,11.46
2022-09-12T04:27:31.488Z,11.40
2022-09-12T04:30:00.334Z,11.39
2022-09-12T04:32:28.341Z,11.38
2022-09-12T04:34:56.418Z,11.35
2022-09-12T04:37:24.579Z,11.38
2022-09-12T04:39:56.057Z,11.42
2022-09-12T04:42:24.319Z,11.30
2022-09-12T04:44:53.735Z,11.27
2022-09-12T04:47:21.765Z,11.30
2022-09-12T04:49:51.143Z,11.33
2022-09-12T04:52:19.219Z,11.28
2022-09-12T04:54:47.209Z,11.26
2022-09-12T04:57:15.332Z,11.17
2022-09-12T04:59:43.587Z,11.23
2022-09-12T05:02:13.000Z,11.27
2022-09-12T05:04:41.017Z,11.27
2022-09-12T05:07:09.153Z,11.25
2022-09-12T05:09:37.186Z,11.27
2022-09-12T05:12:06.098Z,11.20
2022-09-12T05:14:34.856Z,11.19
2022-09-12T05:17:03.462Z,11.16
2022-09-12T05:19:33.247Z,11.15
2022-09-12T05:22:01.636Z,11.11
2022-09-12T05:24:29.652Z,11.11
2022-09-12T05:26:57.824Z,11.15
2022-09-12T05:29:26.323Z,11.14
2022-09-12T05:31:54.572Z,11.13
2022-09-12T05:34:23.345Z,11.10
2022-09-12T05:36:52.789Z,11.14
2022-09-12T05:39:20.854Z,11.19
2022-09-12T05:41:49.052Z,11.18
2022-09-12T05:44:17.907Z,11.15
2022-09-12T05:46:48.579Z,11.15
2022-09-12T05:49:16.806Z,11.20
2022-09-12T05:51:46.724Z,11.20
2022-09-12T05:54:19.517Z,11.21
2022-09-12T05:56:48.405Z,11.26
2022-09-12T05:59:18.015Z,11.29
2022-09-12T06:01:46.545Z,11.28
2022-09-12T06:04:14.819Z,11.30
2022-09-12T06:06:45.189Z,11.35
2022-09-12T06:09:14.205Z,11.37
2022-09-12T06:11:44.187Z,11.40
2022-09-12T06:14:13.827Z,11.43
2022-09-12T06:16:42.098Z,11.44
2022-09-12T06:19:15.560Z,11.43
2022-09-12T06:21:43.798Z,11.51
2022-09-12T06:24:12.245Z,11.56
2022-09-12T06:26:40.288Z,11.63
2022-09-12T06:29:11.830Z,11.66
2022-09-12T06:31:41.757Z,11.70
2022-09-12T06:34:11.244Z,11.74
2022-09-12T06:36:40.542Z,11.78
2022-09-12T06:39:11.159Z,11.83
2022-09-12T06:41:43.665Z,11.86
2022-09-12T06:44:16.078Z,11.89
2022-09-12T06:46:44.553Z,11.92
2022-09-12T06:49:13.108Z,11.90
2022-09-12T06:51:42.100Z,11.97
2022-09-12T06:54:10.724Z,12.02
2022-09-12T06:56:38.935Z,12.09
2022-09-12T06:59:06.947Z,12.16
2022-09-12T07:01:36.414Z,12.21
2022-09-12T07:04:05.411Z,12.24
2022-09-12T07:06:38.008Z,12.21
2022-09-12T07:09:07.503Z,12.30
2022-09-12T07:11:37.067Z,12.33
2022-09-12T07:14:06.407Z,12.37
2022-09-12T07:16:37.449Z,12.44
2022-09-12T07:19:07.700Z,12.48
2022-09-12T07:21:39.768Z,12.54
2022-09-12T07:24:09.860Z,12.65
2022-09-12T07:26:38.009Z,12.75
2022-09-12T07:29:34.846Z,12.82
2022-09-12T07:31:55.740Z,12.89
2022-09-12T07:34:23.781Z,12.95
2022-09-12T07:36:51.869Z,13.02
2022-09-12T07:39:20.118Z,12.99
2022-09-12T07:41:48.232Z,13.09
2022-09-12T07:44:16.255Z,13.17
2022-09-12T07:46:44.326Z,13.29
2022-09-12T07:49:14.400Z,13.39
2022-09-12T07:51:42.474Z,13.38
2022-09-12T07:54:10.893Z,13.47
2022-09-12T07:56:39.738Z,13.44
2022-09-12T07:59:08.167Z,13.51
2022-09-12T08:01:36.447Z,13.65
2022-09-12T08:04:05.155Z,13.80
2022-09-12T08:06:36.165Z,13.92
2022-09-12T08:09:07.828Z,13.94
2022-09-12T08:11:36.283Z,14.07
2022-09-12T08:14:05.772Z,14.14
2022-09-12T08:16:34.775Z,14.22
2022-09-12T08:19:03.393Z,14.33
2022-09-12T08:21:32.850Z,14.33
2022-09-12T08:24:03.746Z,14.39
2022-09-12T08:26:34.724Z,14.51
2022-09-12T08:29:04.203Z,14.54
2022-09-12T08:31:36.461Z,14.62
2022-09-12T08:34:05.698Z,14.70
2022-09-12T08:36:34.139Z,14.77
2022-09-12T08:39:06.037Z,14.85
2022-09-12T08:41:35.984Z,14.88
2022-09-12T08:44:24.248Z,14.98
2022-09-12T08:47:01.671Z,15.13
2022-09-12T08:49:31.285Z,15.28
2022-09-12T08:52:01.679Z,15.41
2022-09-12T08:54:32.417Z,15.52
2022-09-12T08:57:04.151Z,15.65
2022-09-12T08:59:36.064Z,15.75
2022-09-12T09:02:05.332Z,15.86
2022-09-12T09:04:39.068Z,15.86
2022-09-12T09:07:28.035Z,16.01
2022-09-12T09:10:10.208Z,16.14
2022-09-12T09:12:42.533Z,16.12
2022-09-12T09:15:24.782Z,16.10
2022-09-12T09:17:54.971Z,16.19
2022-09-12T09:20:29.940Z,16.23
2022-09-12T09:23:01.783Z,16.22
2022-09-12T09:25:41.220Z,16.41
2022-09-12T09:28:14.198Z,16.52
2022-09-12T09:30:44.503Z,16.53
2022-09-12T09:33:22.459Z,16.57
2022-09-12T09:35:58.144Z,16.66
2022-09-12T09:38:32.019Z,16.70
2022-09-12T09:41:12.317Z,16.78
2022-09-12T09:43:40.628Z,16.83
2022-09-12T09:46:08.971Z,16.91
2022-09-12T09:48:38.435Z,16.95
2022-09-12T09:51:09.316Z,16.98
2022-09-12T09:53:41.746Z,17.09
2022-09-12T09:56:14.875Z,17.10
2022-09-12T09:58:43.644Z,17.23
2022-09-12T10:01:17.079Z,17.30
2022-09-12T10:03:52.308Z,17.26
2022-09-12T10:06:32.284Z,17.36
2022-09-12T10:09:11.254Z,17.37
2022-09-12T10:11:45.110Z,17.50
2022-09-12T10:14:38.516Z,17.72
2022-09-12T10:17:33.167Z,17.73
2022-09-12T10:20:21.626Z,17.78
2022-09-12T10:22:50.315Z,17.75
2022-09-12T10:25:20.195Z,17.89
2022-09-12T10:27:55.218Z,18.00
2022-09-12T10:30:25.090Z,18.08
2022-09-12T10:32:54.101Z,18.05
2022-09-12T10:35:24.494Z,18.09
2022-09-12T10:37:55.496Z,18.19
2022-09-12T10:40:25.569Z,18.28
2022-09-12T10:42:56.054Z,18.43
2022-09-12T10:45:29.382Z,18.54
2022-09-12T10:48:02.105Z,18.66
2022-09-12T10:50:34.492Z,18.47
2022-09-12T10:53:16.123Z,18.47
2022-09-12T10:56:02.949Z,18.58
2022-09-12T10:58:40.979Z,18.56
2022-09-12T11:01:14.341Z,18.65
2022-09-12T11:03:55.786Z,18.68
2022-09-12T11:06:29.788Z,18.70
2022-09-12T11:09:06.446Z,18.59
2022-09-12T11:11:43.285Z,18.61
2022-09-12T11:14:34.008Z,18.73
2022-09-12T11:17:13.414Z,18.70
2022-09-12T11:20:01.313Z,18.70
2022-09-12T11:22:37.989Z,18.90
2022-09-12T11:25:20.144Z,18.87
2022-09-12T11:28:04.547Z,18.93
2022-09-12T11:30:39.195Z,18.96
2022-09-12T11:33:25.484Z,19.14
2022-09-12T11:35:57.289Z,19.09
2022-09-12T11:38:43.116Z,19.24
2022-09-12T11:41:14.302Z,19.29
2022-09-12T11:43:46.167Z,19.34
2022-09-12T11:46:19.956Z,19.39
2022-09-12T11:48:52.789Z,19.41
2022-09-12T11:51:22.470Z,19.51
2022-09-12T11:54:01.002Z,19.60
2022-09-12T11:56:29.069Z,19.72
2022-09-12T11:59:01.098Z,19.79
2022-09-12T12:01:56.377Z,19.69
2022-09-12T12:04:29.066Z,19.72
2022-09-12T12:07:03.603Z,19.84
2022-09-12T12:09:33.163Z,19.90
2022-09-12T12:12:04.711Z,20.09
2022-09-12T12:14:39.119Z,20.06
2022-09-12T12:17:16.748Z,20.21
2022-09-12T12:19:46.512Z,20.28
2022-09-12T12:22:18.594Z,20.28
2022-09-12T12:24:56.961Z,20.25
2022-09-12T12:27:27.118Z,20.22
2022-09-12T12:29:55.395Z,20.16
2022-09-12T12:32:26.770Z,20.21
2022-09-12T12:35:37.005Z,20.24
2022-09-12T12:38:05.599Z,20.35
2022-09-12T12:40:33.709Z,20.46
2022-09-12T12:43:08.042Z,20.38
2022-09-12T12:46:02.798Z,20.41
2022-09-12T12:48:35.538Z,20.40
2022-09-12T12:51:18.459Z,20.45
2022-09-12T12:53:46.642Z,20.57
2022-09-12T12:56:29.244Z,20.75
2022-09-12T12:59:01.194Z,20.74
2022-09-12T13:01:29.882Z,20.90
2022-09-12T13:04:01.535Z,20.90
2022-09-12T13:06:33.267Z,20.90
2022-09-12T13:09:03.171Z,20.95
2022-09-12T13:11:34.684Z,20.94
2022-09-12T13:14:04.812Z,20.77
2022-09-12T13:16:35.327Z,20.92
2022-09-12T13:19:07.036Z,20.95
2022-09-12T13:21:35.154Z,20.97
2022-09-12T13:24:05.320Z,21.12
2022-09-12T13:26:41.762Z,21.03
2022-09-12T13:29:11.135Z,21.15
2022-09-12T13:31:39.182Z,21.30
2022-09-12T13:34:10.652Z,21.38
2022-09-12T13:36:46.432Z,21.53
2022-09-12T13:39:18.684Z,21.62
2022-09-12T13:42:21.919Z,21.74
2022-09-12T13:44:52.171Z,21.84
2022-09-12T13:47:26.453Z,21.78
2022-09-12T13:49:56.113Z,21.82
2022-09-12T13:52:26.891Z,21.80
2022-09-12T13:54:58.197Z,21.89
2022-09-12T13:57:31.809Z,21.84
2022-09-12T14:00:02.109Z,21.89
2022-09-12T14:02:36.764Z,21.89
2022-09-12T14:05:19.814Z,21.73
2022-09-12T14:07:56.194Z,21.76
2022-09-12T14:10:33.102Z,21.77
2022-09-12T14:13:02.757Z,21.86
2022-09-12T14:15:33.457Z,21.71
2022-09-12T14:18:03.245Z,21.79
2022-09-12T14:20:37.010Z,21.72
2022-09-12T14:23:08.481Z,21.79
2022-09-12T14:25:39.070Z,21.90
2022-09-12T14:28:07.196Z,21.87
2022-09-12T14:30:37.284Z,21.98
2022-09-12T14:33:14.232Z,21.99
2022-09-12T14:35:44.842Z,21.84
2022-09-12T14:38:20.478Z,21.87
2022-09-12T14:40:50.432Z,22.05
2022-09-12T14:43:21.691Z,22.06
2022-09-12T14:45:56.999Z,22.24
2022-09-12T14:48:25.435Z,22.10
2022-09-12T14:50:55.245Z,22.17
2022-09-12T14:53:26.311Z,22.31
2022-09-12T14:55:59.294Z,22.37
2022-09-12T14:58:28.488Z,22.27
2022-09-12T15:00:59.191Z,22.33
2022-09-12T15:03:30.516Z,22.39
2022-09-12T15:06:00.900Z,22.47
2022-09-12T15:08:29.012Z,22.46
2022-09-12T15:10:57.949Z,22.58
2022-09-12T15:13:27.002Z,22.64
2022-09-12T15:15:56.538Z,22.61
2022-09-12T15:18:26.285Z,22.68
2022-09-12T15:20:57.033Z,22.68
2022-09-12T15:23:32.938Z,22.78
2022-09-12T15:26:01.365Z,22.74
2022-09-12T15:28:31.694Z,22.66
2022-09-12T15:31:05.851Z,22.70
2022-09-12T15:33:34.006Z,22.64
2022-09-12T15:36:02.250Z,22.71
2022-09-12T15:38:31.986Z,22.57
2022-09-12T15:41:00.223Z,22.58
2022-09-12T15:43:28.368Z,22.51
2022-09-12T15:45:59.325Z,22.52
2022-09-12T15:48:27.389Z,22.48
2022-09-12T15:50:57.684Z,22.44
2022-09-12T15:53:25.663Z,22.41
2022-09-12T15:55:55.003Z,22.26
2022-09-12T15:58:24.610Z,22.24
2022-09-12T16:00:52.611Z,22.25
2022-09-12T16:03:23.767Z,22.22
2022-09-12T16:05:52.257Z,22.16
2022-09-12T16:08:20.265Z,22.14
2022-09-12T16:10:49.060Z,22.13
2022-09-12T16:13:18.812Z,21.97
2022-09-12T16:15:46.999Z,21.94
2022-09-12T16:18:15.681Z,21.78
2022-09-12T16:20:43.774Z,21.65
2022-09-12T16:23:12.802Z,21.68
2022-09-12T16:25:41.051Z,21.68
2022-09-12T16:28:09.652Z,21.72
2022-09-12T16:30:39.046Z,21.64
2022-09-12T16:33:07.277Z,21.56
2022-09-12T16:35:35.220Z,21.55
2022-09-12T16:38:03.259Z,21.44
2022-09-12T16:40:31.703Z,21.33
2022-09-12T16:42:59.722Z,21.18
2022-09-12T16:45:27.696Z,21.20
2022-09-12T16:47:57.215Z,21.24
2022-09-12T16:50:25.275Z,21.22
2022-09-12T16:52:53.655Z,21.08
2022-09-12T16:55:22.325Z,21.10
2022-09-12T16:57:50.666Z,21.00
2022-09-12T17:00:18.913Z,21.10
2022-09-12T17:02:47.395Z,21.12
2022-09-12T17:05:16.984Z,21.14
2022-09-12T17:07:44.980Z,21.16
2022-09-12T17:10:13.017Z,21.12
2022-09-12T17:12:41.106Z,21.03
2022-09-12T17:15:09.902Z,20.97
2022-09-12T17:17:38.115Z,20.83
2022-09-12T17:20:06.783Z,20.86
2022-09-12T17:22:36.115Z,20.86
2022-09-12T17:25:06.837Z,20.80
2022-09-12T17:27:34.861Z,20.76
2022-09-12T17:30:02.924Z,20.80
2022-09-12T17:32:32.420Z,20.75
2022-09-12T17:35:00.532Z,20.73
2022-09-12T17:37:28.589Z,20.71
2022-09-12T17:39:57.978Z,20.68
2022-09-12T17:42:26.044Z,20.65
2022-09-12T17:44:54.969Z,20.59
2022-09-12T17:47:22.990Z,20.50
2022-09-12T17:49:50.976Z,20.44
2022-09-12T17:52:19.060Z,20.38
2022-09-12T17:54:47.103Z,20.36
2022-09-12T17:57:16.504Z,20.32
2022-09-12T17:59:44.537Z,20.27
2022-09-12T18:02:16.080Z,20.21
2022-09-12T18:04:46.311Z,20.16
2022-09-12T18:07:14.624Z,20.07
2022-09-12T18:09:43.804Z,19.99
2022-09-12T18:12:12.895Z,19.93
2022-09-12T18:14:43.553Z,19.87
2022-09-12T18:17:11.673Z,19.77
2022-09-12T18:19:39.768Z,19.68
2022-09-12T18:22:07.800Z,19.60
2022-09-12T18:24:35.884Z,19.50
2022-09-12T18:27:05.169Z,19.47
2022-09-12T18:29:33.300Z,19.44
2022-09-12T18:32:03.851Z,19.39
2022-09-12T18:34:31.887Z,19.33
2022-09-12T18:37:01.954Z,19.27
2022-09-12T18:39:31.072Z,19.21
2022-09-12T18:42:00.406Z,19.15
2022-09-12T18:44:28.534Z,19.12
2022-09-12T18:46:57.109Z,19.08
2022-09-12T18:49:26.957Z,19.03
2022-09-12T18:51:57.230Z,18.99
2022-09-12T18:54:25.236Z,18.94
2022-09-12T18:56:53.255Z,18.89
2022-09-12T18:59:21.347Z,18.84
2022-09-12T19:01:50.292Z,18.81
2022-09-12T19:04:18.827Z,18.71
2022-09-12T19:06:50.436Z,18.60
2022-09-12T19:09:20.641Z,18.54
2022-09-12T19:11:50.064Z,18.48
2022-09-12T19:14:19.616Z,18.44
2022-09-12T19:16:48.737Z,18.41
2022-09-12T19:19:16.786Z,18.39
2022-09-12T19:21:45.146Z,18.35
2022-09-12T19:24:16.226Z,18.31
2022-09-12T19:26:45.264Z,18.27
2022-09-12T19:29:14.381Z,18.21
2022-09-12T19:31:42.430Z,18.14
2022-09-12T19:34:11.604Z,18.11
2022-09-12T19:36:45.525Z,18.08
2022-09-12T19:39:17.245Z,18.05
2022-09-12T19:41:45.956Z,18.02
2022-09-12T19:44:39.473Z,17.98
2022-09-12T19:47:07.873Z,17.92
2022-09-12T19:49:35.911Z,17.88
2022-09-12T19:52:03.966Z,17.84
2022-09-12T19:54:33.340Z,17.81
2022-09-12T19:57:01.394Z,17.80
2022-09-12T19:59:29.431Z,17.75
2022-09-12T20:01:57.647Z,17.71
2022-09-12T20:04:25.850Z,17.68
2022-09-12T20:06:53.902Z,17.64
2022-09-12T20:09:25.003Z,17.59
2022-09-12T20:11:54.353Z,17.55
2022-09-12T20:14:22.461Z,17.51
2022-09-12T20:16:55.174Z,17.44
2022-09-12T20:19:23.197Z,17.41
2022-09-12T20:21:51.248Z,17.36
2022-09-12T20:24:19.240Z,17.33
2022-09-12T20:26:47.411Z,17.29
2022-09-12T20:29:16.783Z,17.24
2022-09-12T20:31:45.046Z,17.20
2022-09-12T20:34:16.354Z,17.16
2022-09-12T20:36:44.741Z,17.08
2022-09-12T20:39:15.014Z,17.04
2022-09-12T20:41:43.032Z,17.00
2022-09-12T20:44:11.140Z,16.95
2022-09-12T20:46:41.028Z,16.91
2022-09-12T20:49:10.270Z,16.89
2022-09-12T20:51:38.583Z,16.86
2022-09-12T20:54:07.876Z,16.83
2022-09-12T20:56:37.515Z,16.81
2022-09-12T20:59:05.902Z,16.77
2022-09-12T21:01:34.434Z,16.76
2022-09-12T21:04:05.288Z,16.73
2022-09-12T21:06:33.282Z,16.71
2022-09-12T21:09:02.312Z,16.67
2022-09-12T21:11:30.339Z,16.64
2022-09-12T21:13:58.958Z,16.56
2022-09-12T21:16:27.112Z,16.50
2022-09-12T21:18:56.929Z,16.45
2022-09-12T21:21:26.998Z,16.39
2022-09-12T21:23:58.848Z,16.36
2022-09-12T21:26:27.188Z,16.33
2022-09-12T21:28:55.247Z,16.31
2022-09-12T21:31:23.445Z,16.29
2022-09-12T21:33:52.919Z,16.27
2022-09-12T21:36:20.917Z,16.25
2022-09-12T21:38:50.703Z,16.23
2022-09-12T21:41:19.135Z,16.18
2022-09-12T21:43:47.218Z,16.17
2022-09-12T21:46:15.285Z,16.16
2022-09-12T21:48:44.123Z,16.16
2022-09-12T21:51:12.151Z,16.17
2022-09-12T21:53:40.486Z,16.15
2022-09-12T21:56:10.782Z,16.11
2022-09-12T21:58:39.318Z,16.09
2022-09-12T22:01:09.461Z,16.05
2022-09-12T22:03:37.643Z,15.99
2022-09-12T22:06:06.867Z,15.93
2022-09-12T22:08:38.768Z,15.82
2022-09-12T22:11:10.907Z,15.76
2022-09-12T22:13:39.720Z,15.67
2022-09-12T22:16:08.439Z,15.69
2022-09-12T22:18:37.043Z,15.70
2022-09-12T22:21:06.980Z,15.66
2022-09-12T22:23:52.931Z,15.62
2022-09-12T22:26:22.318Z,15.54
2022-09-12T22:28:50.726Z,15.46
2022-09-12T22:31:19.160Z,15.43
2022-09-12T22:33:47.164Z,15.40
2022-09-12T22:36:15.675Z,15.41
2022-09-12T22:38:43.756Z,15.37
2022-09-12T22:41:13.148Z,15.33
2022-09-12T22:43:42.684Z,15.24
2022-09-12T22:46:13.237Z,15.13
2022-09-12T22:48:41.766Z,15.10
2022-09-12T22:51:09.928Z,15.02
2022-09-12T22:53:38.480Z,14.98
2022-09-12T22:56:07.380Z,14.94
2022-09-12T22:58:37.373Z,14.90
2022-09-12T23:01:07.714Z,14.89
2022-09-12T23:03:36.476Z,14.87
2022-09-12T23:06:05.122Z,14.89
2022-09-12T23:08:34.643Z,14.91
2022-09-12T23:11:03.266Z,14.95
2022-09-12T23:13:31.336Z,14.97
2022-09-12T23:16:00.123Z,14.98
2022-09-12T23:18:29.635Z,14.98
2022-09-12T23:20:59.306Z,14.98
2022-09-12T23:23:27.354Z,14.98
2022-09-12T23:26:17.240Z,14.93
2022-09-12T23:28:49.658Z,14.84
2022-09-12T23:31:18.634Z,14.81
2022-09-12T23:33:49.544Z,14.75
2022-09-12T23:36:17.773Z,14.72
2022-09-12T23:38:46.648Z,14.67
2022-09-12T23:41:15.847Z,14.60
2022-09-12T23:43:45.307Z,14.54
2022-09-12T23:46:14.260Z,14.53
2022-09-12T23:48:42.767Z,14.52
2022-09-12T23:51:12.779Z,14.49
2022-09-12T23:53:41.191Z,14.42
2022-09-12T23:56:09.421Z,14.37
2022-09-12T23:58:37.521Z,14.34
